createdAt,value
2017-11-11T06:01:46.482Z,3
2017-11-11T06:06:46.775Z,7
2017-11-11T06:09:47.003Z,10
2017-11-11T06:11:47.093Z,13
2017-11-11T06:12:47.125Z,17
2017-11-11T06:13:47.222Z,20
2017-11-11T06:14:47.217Z,23
2017-11-11T06:15:47.309Z,27
2017-11-11T06:16:17.349Z,30
2017-11-11T06:17:17.408Z,33
2017-11-11T06:17:47.412Z,37
2017-11-11T06:18:17.477Z,40
2017-11-11T06:18:47.490Z,43
2017-11-11T06:19:17.483Z,47
2017-11-11T06:19:47.545Z,50
2017-11-11T06:20:17.580Z,53
2017-11-11T06:20:47.605Z,57
2017-11-11T06:21:17.640Z,60
2017-11-11T06:21:47.645Z,63
2017-11-11T06:22:17.720Z,67
2017-11-11T06:22:47.700Z,70
2017-11-11T06:23:17.754Z,73
2017-11-11T06:23:47.770Z,80
2017-11-11T06:24:17.839Z,83
2017-11-11T06:24:47.904Z,90
2017-11-11T06:25:17.844Z,93
2017-11-11T06:25:47.904Z,97
2017-11-11T06:26:17.905Z,100
2017-11-11T06:26:47.951Z,103
2017-11-11T06:27:18.011Z,107
2017-11-11T06:27:48.097Z,110
2017-11-11T06:28:18.024Z,117
2017-11-11T06:28:48.083Z,120
2017-11-11T06:29:18.090Z,123
2017-11-11T06:29:48.132Z,127
2017-11-11T06:30:18.193Z,133
2017-11-11T06:30:48.198Z,137
2017-11-11T06:31:18.278Z,143
2017-11-11T06:31:48.285Z,150
2017-11-11T06:32:18.318Z,157
2017-11-11T06:32:48.350Z,160
2017-11-11T06:33:18.374Z,170
2017-11-11T06:33:48.413Z,177
2017-11-11T06:34:18.449Z,187
2017-11-11T06:34:48.527Z,197
2017-11-11T06:35:18.510Z,203
2017-11-11T06:35:48.504Z,210
2017-11-11T06:36:18.544Z,213
2017-11-11T06:36:48.595Z,223
2017-11-11T06:37:18.616Z,230
2017-11-11T06:37:48.673Z,237
2017-11-11T06:38:18.640Z,243
2017-11-11T06:38:48.769Z,250
2017-11-11T06:39:18.715Z,257
2017-11-11T06:39:48.741Z,267
2017-11-11T06:40:18.775Z,273
2017-11-11T06:40:48.809Z,283
2017-11-11T06:41:18.823Z,293
2017-11-11T06:41:48.873Z,300
2017-11-11T06:42:18.896Z,313
2017-11-11T06:42:48.993Z,327
2017-11-11T06:43:18.951Z,337
2017-11-11T06:43:48.997Z,350
2017-11-11T06:44:19.006Z,360
2017-11-11T06:44:49.058Z,370
2017-11-11T06:45:19.066Z,380
2017-11-11T06:45:49.121Z,393
2017-11-11T06:46:19.180Z,397
2017-11-11T06:46:49.242Z,403
2017-11-11T06:47:19.250Z,413
2017-11-11T06:47:49.302Z,427
2017-11-11T06:48:19.284Z,437
2017-11-11T06:48:49.347Z,443
2017-11-11T06:49:19.310Z,447
2017-11-11T06:49:49.414Z,457
2017-11-11T06:50:19.428Z,467
2017-11-11T06:50:49.428Z,480
2017-11-11T06:51:19.469Z,490
2017-11-11T06:51:49.516Z,497
2017-11-11T06:52:49.634Z,487
2017-11-11T06:53:19.632Z,477
2017-11-11T06:53:49.631Z,473
2017-11-11T06:54:49.731Z,470
2017-11-11T06:55:49.797Z,477
2017-11-11T06:56:19.786Z,467
2017-11-11T06:56:49.832Z,460
2017-11-11T06:57:19.862Z,450
2017-11-11T06:57:49.919Z,433
2017-11-11T06:58:19.868Z,427
2017-11-11T06:58:49.954Z,400
2017-11-11T06:59:19.956Z,373
2017-11-11T06:59:50.037Z,353
2017-11-11T07:00:20.062Z,320
2017-11-11T07:00:50.072Z,317
2017-11-11T07:01:20.100Z,347
2017-11-11T07:01:50.136Z,350
2017-11-11T07:02:20.170Z,363
2017-11-11T07:02:50.256Z,377
2017-11-11T07:03:20.259Z,383
2017-11-11T07:03:50.289Z,407
2017-11-11T07:04:20.270Z,440
2017-11-11T07:04:50.336Z,487
2017-11-11T07:05:20.323Z,540
2017-11-11T07:05:50.347Z,600
2017-11-11T07:06:20.443Z,637
2017-11-11T07:06:50.466Z,690
2017-11-11T07:07:20.438Z,777
2017-11-11T07:07:50.572Z,930
2017-11-11T07:08:20.483Z,1067
2017-11-11T07:08:50.565Z,1030
2017-11-11T07:09:20.552Z,963
2017-11-11T07:09:50.627Z,907
2017-11-11T07:10:20.628Z,947
2017-11-11T07:10:50.658Z,983
2017-11-11T07:11:20.665Z,993
2017-11-11T07:11:50.715Z,990
2017-11-11T07:12:20.738Z,927
2017-11-11T07:12:50.829Z,857
2017-11-11T07:13:20.789Z,823
2017-11-11T07:13:50.853Z,813
2017-11-11T07:14:20.854Z,783
2017-11-11T07:14:50.921Z,760
2017-11-11T07:15:20.929Z,750
2017-11-11T07:15:50.955Z,757
2017-11-11T07:16:21.058Z,770
2017-11-11T07:16:51.025Z,790
2017-11-11T07:17:21.069Z,817
2017-11-11T07:17:51.087Z,840
2017-11-11T07:18:21.171Z,887
2017-11-11T07:18:51.183Z,947
2017-11-11T07:19:21.228Z,1020
2017-11-11T07:19:51.209Z,1053
2017-11-11T07:20:21.270Z,1067
2017-11-11T07:20:51.306Z,1073
2017-11-11T07:21:21.345Z,1067
2017-11-11T07:22:21.391Z,1043
2017-11-11T07:22:51.465Z,987
2017-11-11T07:23:21.473Z,880
2017-11-11T07:23:51.464Z,750
2017-11-11T07:24:21.540Z,620
2017-11-11T07:24:51.563Z,527
2017-11-11T07:25:21.554Z,473
2017-11-11T07:25:51.591Z,443
2017-11-11T07:26:21.648Z,427
2017-11-11T07:26:51.699Z,413
2017-11-11T07:27:21.681Z,397
2017-11-11T07:27:51.701Z,387
2017-11-11T07:28:21.767Z,377
2017-11-11T07:28:51.760Z,333
2017-11-11T07:29:21.801Z,303
2017-11-11T07:29:51.847Z,277
2017-11-11T07:30:21.836Z,247
2017-11-11T07:30:51.886Z,213
2017-11-11T07:31:21.929Z,193
2017-11-11T07:31:51.942Z,177
2017-11-11T07:33:22.094Z,187
2017-11-11T07:33:52.092Z,203
2017-11-11T07:34:22.141Z,230
2017-11-11T07:34:52.142Z,263
2017-11-11T07:35:22.176Z,267
2017-11-11T07:35:52.403Z,257
2017-11-11T07:36:22.206Z,237
2017-11-11T07:36:52.315Z,213
2017-11-11T07:37:22.266Z,200
2017-11-11T07:37:52.308Z,180
2017-11-11T07:38:22.510Z,167
2017-11-11T07:38:52.377Z,163
2017-11-11T07:39:22.460Z,160
2017-11-11T07:39:52.479Z,170
2017-11-11T07:40:22.505Z,203
2017-11-11T07:40:52.514Z,253
2017-11-11T07:41:22.599Z,313
2017-11-11T07:41:52.595Z,400
2017-11-11T07:42:22.594Z,473
2017-11-11T07:42:52.611Z,553
2017-11-11T07:43:22.735Z,593
2017-11-11T07:43:52.725Z,610
2017-11-11T07:44:22.731Z,660
2017-11-11T07:44:52.766Z,713
2017-11-11T07:45:22.754Z,723
2017-11-11T07:45:52.831Z,750
2017-11-11T07:46:22.862Z,773
2017-11-11T07:46:52.896Z,763
2017-11-11T07:47:22.917Z,793
2017-11-11T07:47:52.999Z,787
2017-11-11T07:48:23.041Z,773
2017-11-11T07:49:23.042Z,757
2017-11-11T07:49:53.052Z,730
2017-11-11T07:50:23.110Z,683
2017-11-11T07:50:53.150Z,663
2017-11-11T07:51:23.180Z,633
2017-11-11T07:51:53.163Z,607
2017-11-11T07:52:23.218Z,593
2017-11-11T07:52:53.295Z,607
2017-11-11T07:53:23.349Z,620
2017-11-11T07:53:53.291Z,623
2017-11-11T07:54:23.404Z,647
2017-11-11T07:54:53.457Z,693
2017-11-11T07:55:23.393Z,737
2017-11-11T07:55:53.460Z,770
2017-11-11T07:56:23.448Z,823
2017-11-11T07:56:53.531Z,883
2017-11-11T07:57:23.511Z,940
2017-11-11T07:57:53.540Z,993
2017-11-11T07:58:23.578Z,1053
2017-11-11T07:58:53.855Z,1127
2017-11-11T07:59:23.664Z,1187
2017-11-11T07:59:53.699Z,1240
2017-11-11T08:00:23.714Z,1277
2017-11-11T08:00:53.729Z,1317
2017-11-11T08:01:23.741Z,1393
2017-11-11T08:01:53.796Z,1500
2017-11-11T08:02:23.835Z,1627
2017-11-11T08:02:53.859Z,1760
2017-11-11T08:03:23.890Z,1823
2017-11-11T08:03:53.915Z,1817
2017-11-11T08:04:23.931Z,1783
2017-11-11T08:04:53.966Z,1680
2017-11-11T08:05:23.982Z,1580
2017-11-11T08:05:54.058Z,1593
2017-11-11T08:06:24.060Z,1600
2017-11-11T08:06:54.116Z,1557
2017-11-11T08:07:24.172Z,1613
2017-11-11T08:07:54.154Z,1767
2017-11-11T08:08:24.236Z,1887
2017-11-11T08:08:54.261Z,1877
2017-11-11T08:09:24.242Z,1773
2017-11-11T08:09:54.310Z,1663
2017-11-11T08:10:24.303Z,1467
2017-11-11T08:10:54.410Z,1270
2017-11-11T08:11:24.424Z,1147
2017-11-11T08:11:54.417Z,1067
2017-11-11T08:12:24.474Z,1040
2017-11-11T08:12:55.323Z,1020
2017-11-11T08:13:25.340Z,947
2017-11-11T08:13:55.379Z,883
2017-11-11T08:14:25.355Z,813
2017-11-11T08:14:55.414Z,707
2017-11-11T08:15:25.460Z,657
2017-11-11T08:15:55.509Z,680
2017-11-11T08:16:25.501Z,777
2017-11-11T08:16:55.535Z,903
2017-11-11T08:17:25.585Z,1020
2017-11-11T08:17:55.617Z,1103
2017-11-11T08:18:25.631Z,1267
2017-11-11T08:18:55.677Z,1373
2017-11-11T08:19:25.701Z,1463
2017-11-11T08:19:55.708Z,1497
2017-11-11T08:20:55.800Z,1523
2017-11-11T08:21:25.841Z,1560
2017-11-11T08:21:55.845Z,1523
2017-11-11T08:22:25.870Z,1450
2017-11-11T08:22:55.900Z,1443
2017-11-11T08:23:25.980Z,1527
2017-11-11T08:23:55.970Z,1603
2017-11-11T08:24:26.001Z,1710
2017-11-11T08:24:56.023Z,1827
2017-11-11T08:25:26.077Z,1923
2017-11-11T08:25:56.116Z,1980
2017-11-11T08:26:26.104Z,2050
2017-11-11T08:26:56.190Z,2097
2017-11-11T08:27:26.175Z,2140
2017-11-11T08:27:56.211Z,2103
2017-11-11T08:28:26.298Z,2120
2017-11-11T08:28:56.265Z,2193
2017-11-11T08:29:26.328Z,2317
2017-11-11T08:29:56.312Z,2483
2017-11-11T08:30:26.397Z,2680
2017-11-11T08:30:56.376Z,2797
2017-11-11T08:31:26.411Z,2813
2017-11-11T08:31:56.449Z,2790
2017-11-11T08:32:26.527Z,2717
2017-11-11T08:32:56.528Z,2677
2017-11-11T08:33:26.820Z,2867
2017-11-11T08:33:56.743Z,3367
2017-11-11T08:34:26.558Z,3597
2017-11-11T08:34:56.646Z,3210
2017-11-11T08:35:26.661Z,4463
2017-11-11T08:35:56.684Z,2223
2017-11-11T08:36:26.707Z,1793
2017-11-11T08:36:56.733Z,1870
2017-11-11T08:37:26.797Z,1893
2017-11-11T08:37:57.389Z,1943
2017-11-11T08:38:26.831Z,1920
2017-11-11T08:38:56.883Z,1773
2017-11-11T08:39:26.881Z,1600
2017-11-11T08:39:56.915Z,1410
2017-11-11T08:40:26.945Z,1277
2017-11-11T08:40:56.987Z,1243
2017-11-11T08:41:26.999Z,1240
2017-11-11T08:41:57.039Z,1103
2017-11-11T08:42:27.078Z,1070
2017-11-11T08:42:57.099Z,1013
2017-11-11T08:43:27.154Z,983
2017-11-11T08:43:57.202Z,953
2017-11-11T08:44:57.277Z,990
2017-11-11T08:45:27.300Z,1017
2017-11-11T08:45:57.374Z,1010
2017-11-11T08:46:27.306Z,1097
2017-11-11T08:46:57.356Z,1207
2017-11-11T08:47:27.369Z,1157
2017-11-11T08:47:57.420Z,1270
2017-11-11T08:48:27.468Z,1373
2017-11-11T08:48:57.774Z,1563
2017-11-11T08:49:27.498Z,1757
2017-11-11T08:49:57.568Z,1957
2017-11-11T08:50:27.613Z,2107
2017-11-11T08:50:57.617Z,2183
2017-11-11T08:51:27.633Z,2217
2017-11-11T08:51:57.658Z,2337
2017-11-11T08:52:27.681Z,2447
2017-11-11T08:52:57.726Z,2573
2017-11-11T08:53:27.738Z,2830
2017-11-11T08:53:57.848Z,3100
2017-11-11T08:54:27.794Z,3133
2017-11-11T08:54:57.837Z,2977
2017-11-11T08:55:27.853Z,3087
2017-11-11T08:55:57.903Z,3230
2017-11-11T08:56:27.924Z,3343
2017-11-11T08:56:57.956Z,3393
2017-11-11T08:57:27.977Z,3280
2017-11-11T08:57:58.055Z,3127
2017-11-11T08:58:28.050Z,3100
2017-11-11T08:58:58.120Z,3050
2017-11-11T08:59:28.139Z,2967
2017-11-11T08:59:58.160Z,2647
2017-11-11T09:00:28.157Z,2383
2017-11-11T09:00:58.220Z,2313
2017-11-11T09:01:28.248Z,2587
2017-11-11T09:01:58.278Z,3123
2017-11-11T09:02:28.308Z,3673
2017-11-11T09:02:58.329Z,4440
2017-11-11T09:03:28.387Z,4940
2017-11-11T09:03:58.458Z,5333
2017-11-11T09:04:28.450Z,7633
2017-11-11T09:04:58.526Z,8697
2017-11-11T09:05:28.525Z,8250
2017-11-11T09:05:58.557Z,6953
2017-11-11T09:06:28.596Z,8523
2017-11-11T09:06:58.632Z,8160
2017-11-11T09:07:28.662Z,8857
2017-11-11T09:07:58.713Z,11190
2017-11-11T09:08:28.695Z,9777
2017-11-11T09:08:58.723Z,19743
2017-11-11T09:09:28.765Z,20423
2017-11-11T09:09:58.816Z,18780
2017-11-11T09:10:28.809Z,16987
2017-11-11T09:10:58.884Z,16727
2017-11-11T09:11:28.888Z,8163
2017-11-11T09:11:58.910Z,8943
2017-11-11T09:12:28.963Z,11410
2017-11-11T09:12:59.038Z,10557
2017-11-11T09:13:29.000Z,18450
2017-11-11T09:13:59.084Z,14590
2017-11-11T09:14:29.105Z,8350
2017-11-11T09:14:59.132Z,6330
2017-11-11T09:15:29.111Z,5273
2017-11-11T09:15:59.124Z,5010
2017-11-11T09:16:29.203Z,4980
2017-11-11T09:16:59.236Z,5020
2017-11-11T09:17:29.271Z,4963
2017-11-11T09:17:59.327Z,4910
2017-11-11T09:18:29.295Z,4907
2017-11-11T09:18:59.371Z,4860
2017-11-11T09:19:29.356Z,4733
2017-11-11T09:19:59.411Z,4613
2017-11-11T09:20:29.434Z,4453
2017-11-11T09:20:59.468Z,4260
2017-11-11T09:21:29.472Z,4080
2017-11-11T09:21:59.502Z,4063
2017-11-11T09:22:29.572Z,4150
2017-11-11T09:22:59.613Z,4253
2017-11-11T09:23:29.574Z,4380
2017-11-11T09:23:59.623Z,4500
2017-11-11T09:24:29.632Z,4703
2017-11-11T09:24:59.694Z,4943
2017-11-11T09:25:30.231Z,5167
2017-11-11T09:25:59.779Z,5393
2017-11-11T09:26:29.760Z,5610
2017-11-11T09:26:59.815Z,5553
2017-11-11T09:27:29.867Z,5520
2017-11-11T09:27:59.863Z,5490
2017-11-11T09:28:29.905Z,5347
2017-11-11T09:28:59.974Z,5173
2017-11-11T09:29:29.947Z,4987
2017-11-11T09:29:59.984Z,4657
2017-11-11T09:30:30.011Z,4497
2017-11-11T09:31:00.078Z,4393
2017-11-11T09:31:30.064Z,4543
2017-11-11T09:32:00.113Z,4680
2017-11-11T09:32:30.175Z,4687
2017-11-11T09:33:00.215Z,4810
2017-11-11T09:33:30.220Z,4990
2017-11-11T09:34:00.523Z,5080
2017-11-11T09:34:30.304Z,5247
2017-11-11T09:35:00.758Z,5147
2017-11-11T09:35:30.315Z,5333
2017-11-11T09:36:01.276Z,5793
2017-11-11T09:36:30.378Z,6840
2017-11-11T09:37:01.039Z,8823
2017-11-11T09:37:30.495Z,11157
2017-11-11T09:38:00.754Z,18873
2017-11-11T09:38:30.504Z,12080
2017-11-11T09:39:00.921Z,11063
2017-11-11T09:39:30.613Z,20597
2017-11-11T09:40:01.488Z,11540
2017-11-11T09:40:30.620Z,11110
2017-11-11T09:41:01.311Z,8950
2017-11-11T09:41:30.696Z,8517
2017-11-11T09:42:01.625Z,8203
2017-11-11T09:42:30.753Z,7887
2017-11-11T09:43:00.964Z,7333
2017-11-11T09:43:30.806Z,6510
2017-11-11T09:44:00.845Z,6543
2017-11-11T09:44:30.869Z,6870
2017-11-11T09:45:00.912Z,6040
2017-11-11T09:45:30.924Z,5790
2017-11-11T09:46:01.025Z,6913
2017-11-11T09:46:30.996Z,6673
2017-11-11T09:47:01.045Z,5833
2017-11-11T09:47:31.049Z,5093
2017-11-11T09:48:01.111Z,5327
2017-11-11T09:48:31.166Z,6540
2017-11-11T09:49:01.159Z,7373
2017-11-11T09:49:31.182Z,18657
2017-11-11T09:50:01.239Z,18217
2017-11-11T09:50:31.285Z,20470
2017-11-11T09:51:01.339Z,7237
2017-11-11T09:51:31.356Z,6493
2017-11-11T09:52:01.400Z,5617
2017-11-11T09:52:31.389Z,6777
2017-11-11T09:53:01.471Z,22550
2017-11-11T09:53:31.444Z,23617
2017-11-11T09:54:01.545Z,23360
2017-11-11T09:54:31.523Z,24397
2017-11-11T09:55:01.534Z,24747
2017-11-11T09:55:31.608Z,24160
2017-11-11T09:56:01.696Z,25210
2017-11-11T09:56:31.666Z,25003
2017-11-11T09:57:01.708Z,23747
2017-11-11T09:57:31.722Z,8680
2017-11-11T09:58:01.784Z,11057
2017-11-11T09:58:31.802Z,22830
2017-11-11T09:59:01.831Z,7397
2017-11-11T09:59:31.814Z,6503
2017-11-11T10:00:01.831Z,7150
2017-11-11T10:00:31.906Z,7423
2017-11-11T10:01:01.950Z,8163
2017-11-11T10:01:31.964Z,17590
2017-11-11T10:02:02.022Z,8953
2017-11-11T10:02:32.011Z,12660
2017-11-11T10:03:02.090Z,16577
2017-11-11T10:03:32.105Z,24707
2017-11-11T10:04:02.117Z,24813
2017-11-11T10:04:32.159Z,25497
2017-11-11T10:05:02.165Z,26453
2017-11-11T10:05:32.182Z,13443
2017-11-11T10:06:02.250Z,9500
2017-11-11T10:06:32.257Z,12020
2017-11-11T10:07:02.312Z,17880
2017-11-11T10:07:32.346Z,11093
2017-11-11T10:08:02.330Z,11907
2017-11-11T10:08:32.363Z,10780
2017-11-11T10:09:02.522Z,11550
2017-11-11T10:09:32.509Z,26947
2017-11-11T10:10:03.101Z,26347
2017-11-11T10:10:32.549Z,25770
2017-11-11T10:11:02.672Z,25470
2017-11-11T10:11:32.615Z,25813
2017-11-11T10:12:02.685Z,25110
2017-11-11T10:12:32.706Z,25103
2017-11-11T10:13:02.724Z,23870
2017-11-11T10:13:32.741Z,24210
2017-11-11T10:14:03.639Z,26883
2017-11-11T10:14:32.803Z,26653
2017-11-11T10:15:02.878Z,26907
2017-11-11T10:15:32.861Z,26990
2017-11-11T10:16:02.963Z,26540
2017-11-11T10:16:32.928Z,25693
2017-11-11T10:17:02.968Z,25667
2017-11-11T10:17:32.991Z,24020
2017-11-11T10:18:03.027Z,24960
2017-11-11T10:18:33.093Z,25587
2017-11-11T10:19:03.090Z,25480
2017-11-11T10:19:33.110Z,24107
2017-11-11T10:20:03.210Z,24763
2017-11-11T10:20:33.194Z,24753
2017-11-11T10:21:03.239Z,25107
2017-11-11T10:21:33.294Z,25043
2017-11-11T10:22:03.341Z,25860
2017-11-11T10:22:33.296Z,25953
2017-11-11T10:23:03.343Z,25817
2017-11-11T10:23:33.378Z,26030
2017-11-11T10:24:03.453Z,26970
2017-11-11T10:24:33.433Z,25460
2017-11-11T10:25:03.519Z,27950
2017-11-11T10:25:33.480Z,28627
2017-11-11T10:26:03.579Z,27197
2017-11-11T10:26:33.633Z,24893
2017-11-11T10:27:03.614Z,28100
2017-11-11T10:27:33.602Z,28413
2017-11-11T10:28:03.694Z,23380
2017-11-11T10:28:33.715Z,27743
2017-11-11T10:29:03.749Z,24537
2017-11-11T10:29:33.723Z,27490
2017-11-11T10:30:03.770Z,27827
2017-11-11T10:30:33.782Z,28297
2017-11-11T10:31:03.919Z,22777
2017-11-11T10:31:33.846Z,28357
2017-11-11T10:32:03.891Z,28657
2017-11-11T10:32:33.915Z,28350
2017-11-11T10:33:03.952Z,28417
2017-11-11T10:33:33.971Z,27580
2017-11-11T10:34:04.040Z,26643
2017-11-11T10:34:34.027Z,15687
2017-11-11T10:35:04.078Z,26013
2017-11-11T10:35:34.097Z,10663
2017-11-11T10:36:04.218Z,19463
2017-11-11T10:36:34.162Z,24570
2017-11-11T10:37:04.197Z,22153
2017-11-11T10:37:34.240Z,14317
2017-11-11T10:38:04.321Z,18157
2017-11-11T10:38:34.323Z,19030
2017-11-11T10:39:04.409Z,21980
2017-11-11T10:39:34.354Z,19737
2017-11-11T10:40:04.435Z,9333
2017-11-11T10:40:34.446Z,7893
2017-11-11T10:41:04.556Z,7520
2017-11-11T10:41:34.524Z,7423
2017-11-11T10:42:04.559Z,7933
2017-11-11T10:42:34.623Z,7867
2017-11-11T10:43:04.622Z,8277
2017-11-11T10:43:34.648Z,7127
2017-11-11T10:44:04.698Z,6453
2017-11-11T10:44:34.668Z,6250
2017-11-11T10:45:04.746Z,6113
2017-11-11T10:45:34.763Z,5983
2017-11-11T10:46:04.923Z,5910
2017-11-11T10:46:34.792Z,5977
2017-11-11T10:47:04.872Z,6117
2017-11-11T10:47:34.884Z,6283
2017-11-11T10:48:04.948Z,6427
2017-11-11T10:48:34.909Z,6443
2017-11-11T10:49:04.987Z,6277
2017-11-11T10:49:35.019Z,6573
2017-11-11T10:50:05.080Z,6930
2017-11-11T10:50:35.087Z,7057
2017-11-11T10:51:05.152Z,6513
2017-11-11T10:51:35.136Z,5650
2017-11-11T10:52:05.185Z,5130
2017-11-11T10:52:35.153Z,4347
2017-11-11T10:53:05.237Z,3760
2017-11-11T10:53:35.259Z,3590
2017-11-11T10:54:05.313Z,2797
2017-11-11T10:54:35.340Z,2630
2017-11-11T10:55:05.365Z,2333
2017-11-11T10:55:35.406Z,2103
2017-11-11T10:56:05.442Z,2223
2017-11-11T10:56:35.436Z,2230
2017-11-11T10:57:05.474Z,2033
2017-11-11T10:57:35.466Z,2067
2017-11-11T10:58:05.544Z,2053
2017-11-11T10:58:35.515Z,2167
2017-11-11T10:59:05.570Z,2443
2017-11-11T10:59:35.581Z,2483
2017-11-11T11:00:05.619Z,2740
2017-11-11T11:00:35.698Z,2513
2017-11-11T11:01:05.740Z,2450
2017-11-11T11:01:35.713Z,2493
2017-11-11T11:02:05.815Z,2460
2017-11-11T11:02:35.793Z,2207
2017-11-11T11:03:05.809Z,2280
2017-11-11T11:03:35.821Z,2457
2017-11-11T11:04:05.871Z,2603
2017-11-11T11:04:35.886Z,2610
2017-11-11T11:05:05.923Z,2657
2017-11-11T11:05:35.940Z,2613
2017-11-11T11:06:06.008Z,2540
2017-11-11T11:06:35.999Z,2587
2017-11-11T11:07:06.046Z,2827
2017-11-11T11:07:36.063Z,3143
2017-11-11T11:08:06.109Z,3337
2017-11-11T11:08:36.195Z,3547
2017-11-11T11:09:06.304Z,3443
2017-11-11T11:09:36.184Z,3213
2017-11-11T11:10:06.288Z,3150
2017-11-11T11:10:36.313Z,3100
2017-11-11T11:11:06.361Z,3093
2017-11-11T11:11:36.313Z,3220
2017-11-11T11:12:06.436Z,3457
2017-11-11T11:12:36.402Z,3810
2017-11-11T11:13:06.462Z,4120
2017-11-11T11:13:36.455Z,3970
2017-11-11T11:14:06.545Z,3990
2017-11-11T11:14:36.516Z,3983
2017-11-11T11:15:06.588Z,4123
2017-11-11T11:15:36.593Z,3990
2017-11-11T11:16:06.674Z,4170
2017-11-11T11:16:36.617Z,4330
2017-11-11T11:17:06.690Z,4527
2017-11-11T11:17:36.713Z,4817
2017-11-11T11:18:06.745Z,5107
2017-11-11T11:18:36.739Z,4963
2017-11-11T11:19:06.782Z,5190
2017-11-11T11:19:36.817Z,4977
2017-11-11T11:20:06.845Z,4853
2017-11-11T11:20:36.860Z,4607
2017-11-11T11:21:06.965Z,4260
2017-11-11T11:21:36.938Z,4187
2017-11-11T11:22:06.983Z,4683
2017-11-11T11:22:37.001Z,5203
2017-11-11T11:23:07.072Z,5490
2017-11-11T11:23:37.080Z,4663
2017-11-11T11:24:07.091Z,3753
2017-11-11T11:24:37.109Z,3330
2017-11-11T11:25:07.157Z,3193
2017-11-11T11:25:37.192Z,2767
2017-11-11T11:26:07.322Z,2820
2017-11-11T11:26:37.251Z,2933
2017-11-11T11:27:07.304Z,2677
2017-11-11T11:27:37.286Z,2173
2017-11-11T11:28:07.395Z,2217
2017-11-11T11:28:37.421Z,2337
2017-11-11T11:29:07.439Z,2240
2017-11-11T11:29:37.465Z,2460
2017-11-11T11:30:07.465Z,2703
2017-11-11T11:30:37.535Z,2867
2017-11-11T11:31:07.619Z,2897
2017-11-11T11:31:37.563Z,2910
2017-11-11T11:32:07.804Z,2920
2017-11-11T11:32:37.851Z,2983
2017-11-11T11:33:07.861Z,2950
2017-11-11T11:33:37.895Z,2967
2017-11-11T11:34:07.920Z,2957
2017-11-11T11:34:37.995Z,2913
2017-11-11T11:35:08.062Z,2813
2017-11-11T11:35:38.066Z,2660
2017-11-11T11:36:08.299Z,2440
2017-11-11T11:36:38.067Z,2093
2017-11-11T11:37:08.173Z,1913
2017-11-11T11:37:38.151Z,1777
2017-11-11T11:38:08.214Z,1590
2017-11-11T11:38:38.249Z,1530
2017-11-11T11:39:08.267Z,1483
2017-11-11T11:39:38.302Z,1440
2017-11-11T11:40:08.317Z,1360
2017-11-11T11:40:38.364Z,1283
2017-11-11T11:41:08.435Z,1247
2017-11-11T11:41:38.443Z,1210
2017-11-11T11:42:08.419Z,1110
2017-11-11T11:42:38.438Z,1020
2017-11-11T11:43:08.706Z,933
2017-11-11T11:43:38.754Z,870
2017-11-11T11:44:08.777Z,860
2017-11-11T11:44:38.793Z,840
2017-11-11T11:45:08.831Z,783
2017-11-11T11:45:38.849Z,760
2017-11-11T11:46:08.918Z,747
2017-11-11T11:46:38.921Z,727
2017-11-11T11:47:08.952Z,813
2017-11-11T11:47:38.984Z,873
2017-11-11T11:48:09.014Z,990
2017-11-11T11:48:39.100Z,903
2017-11-11T11:49:09.081Z,770
2017-11-11T11:49:39.119Z,693
2017-11-11T11:50:09.135Z,640
2017-11-11T11:50:39.154Z,663
2017-11-11T11:51:09.505Z,777
2017-11-11T11:51:39.243Z,820
2017-11-11T11:52:09.273Z,807
2017-11-11T11:52:39.308Z,863
2017-11-11T11:53:12.223Z,1113
2017-11-11T11:53:42.261Z,1237
2017-11-11T11:54:12.342Z,1280
2017-11-11T11:54:42.384Z,1230
2017-11-11T11:55:12.396Z,1130
2017-11-11T11:55:42.383Z,997
2017-11-11T11:56:12.707Z,970
2017-11-11T11:56:42.435Z,1097
2017-11-11T11:57:42.518Z,1047
2017-11-11T11:58:12.532Z,1160
2017-11-11T11:58:42.574Z,1237
2017-11-11T11:59:12.630Z,1183
2017-11-11T11:59:42.636Z,1123
2017-11-11T12:00:12.666Z,1033
2017-11-11T12:00:42.670Z,980
2017-11-11T12:01:12.772Z,907
2017-11-11T12:01:42.757Z,820
2017-11-11T12:02:12.855Z,777
2017-11-11T12:02:42.841Z,817
2017-11-11T12:03:12.847Z,917
2017-11-11T12:03:42.885Z,1013
2017-11-11T12:04:12.946Z,937
2017-11-11T12:04:42.920Z,1097
2017-11-11T12:05:12.980Z,1183
2017-11-11T12:05:42.985Z,1357
2017-11-11T12:06:13.090Z,1267
2017-11-11T12:06:43.052Z,1210
2017-11-11T12:07:13.089Z,1150
2017-11-11T12:07:43.116Z,1090
2017-11-11T12:08:13.227Z,1193
2017-11-11T12:08:43.163Z,1313
2017-11-11T12:09:13.219Z,1333
2017-11-11T12:09:43.290Z,1123
2017-11-11T12:10:13.269Z,1143
2017-11-11T12:10:43.296Z,1270
2017-11-11T12:11:13.403Z,1360
2017-11-11T12:11:43.394Z,1423
2017-11-11T12:12:13.410Z,1540
2017-11-11T12:12:43.449Z,1610
2017-11-11T12:13:13.510Z,1583
2017-11-11T12:13:43.541Z,1480
2017-11-11T12:14:13.571Z,1383
2017-11-11T12:14:43.563Z,1370
2017-11-11T12:15:13.608Z,1320
2017-11-11T12:15:43.618Z,1300
2017-11-11T12:16:13.737Z,1407
2017-11-11T12:16:43.735Z,1503
2017-11-11T12:17:13.755Z,1520
2017-11-11T12:17:43.776Z,1590
2017-11-11T12:18:13.817Z,1697
2017-11-11T12:18:43.843Z,1700
2017-11-11T12:19:13.898Z,1650
2017-11-11T12:20:13.950Z,1633
2017-11-11T12:20:43.950Z,1723
2017-11-11T12:21:14.065Z,1860
2017-11-11T12:21:44.030Z,1987
2017-11-11T12:22:14.039Z,1920
2017-11-11T12:22:44.084Z,2017
2017-11-11T12:23:14.144Z,2030
2017-11-11T12:23:44.139Z,1877
2017-11-11T12:24:14.185Z,1613
2017-11-11T12:24:44.231Z,1380
2017-11-11T12:25:14.237Z,1280
2017-11-11T12:26:14.340Z,1523
2017-11-11T12:26:44.353Z,1837
2017-11-11T12:27:14.364Z,2007
2017-11-11T12:28:14.407Z,1923
2017-11-11T12:28:44.452Z,1873
2017-11-11T12:29:14.477Z,1927
2017-11-11T12:29:44.481Z,2080
2017-11-11T12:30:14.511Z,2183
2017-11-11T12:30:44.578Z,2320
2017-11-11T12:31:14.582Z,2550
2017-11-11T12:31:44.610Z,2923
2017-11-11T12:32:14.631Z,3253
2017-11-11T12:32:44.681Z,3577
2017-11-11T12:33:14.749Z,3840
2017-11-11T12:33:44.738Z,4227
2017-11-11T12:34:14.781Z,4773
2017-11-11T12:34:44.783Z,5307
2017-11-11T12:35:14.837Z,5823
2017-11-11T12:35:44.865Z,6503
2017-11-11T12:36:14.934Z,9767
2017-11-11T12:36:44.907Z,15800
2017-11-11T12:37:14.926Z,13540
2017-11-11T12:37:44.949Z,16893
2017-11-11T12:38:15.009Z,19850
2017-11-11T12:38:45.024Z,19913
2017-11-11T12:39:15.051Z,17877
2017-11-11T12:39:45.089Z,13177
2017-11-11T12:40:15.128Z,11653
2017-11-11T12:40:45.172Z,18030
2017-11-11T12:41:15.272Z,8720
2017-11-11T12:41:45.194Z,7783
2017-11-11T12:42:15.265Z,6773
2017-11-11T12:42:45.320Z,6270
2017-11-11T12:43:15.316Z,5827
2017-11-11T12:43:45.354Z,5450
2017-11-11T12:44:15.425Z,5163
2017-11-11T12:44:45.395Z,4780
2017-11-11T12:45:15.524Z,4177
2017-11-11T12:45:45.479Z,3747
2017-11-11T12:46:15.550Z,3483
2017-11-11T12:46:45.568Z,3277
2017-11-11T12:47:15.604Z,3243
2017-11-11T12:47:45.587Z,3257
2017-11-11T12:48:15.607Z,3303
2017-11-11T12:48:45.684Z,3427
2017-11-11T12:49:15.672Z,3797
2017-11-11T12:49:45.752Z,6210
2017-11-11T12:50:15.754Z,8713
2017-11-11T12:50:45.753Z,9603
2017-11-11T12:51:15.874Z,8633
2017-11-11T12:51:45.813Z,6627
2017-11-11T12:52:15.865Z,5303
2017-11-11T12:52:45.900Z,5280
2017-11-11T12:53:15.925Z,5453
2017-11-11T12:53:45.945Z,5277
2017-11-11T12:54:16.011Z,4817
2017-11-11T12:54:45.991Z,4343
2017-11-11T12:55:16.040Z,4213
2017-11-11T12:55:46.057Z,4217
2017-11-11T12:56:16.158Z,4197
2017-11-11T12:56:46.179Z,3987
2017-11-11T12:57:16.202Z,4137
2017-11-11T12:57:46.209Z,4927
2017-11-11T12:58:16.258Z,5190
2017-11-11T12:58:46.254Z,5123
2017-11-11T12:59:16.323Z,4900
2017-11-11T12:59:46.359Z,4727
2017-11-11T13:00:16.424Z,4810
2017-11-11T13:00:46.378Z,4807
2017-11-11T13:01:16.467Z,4753